sensor_id;sensor_type;location;lat;lon;timestamp;pressure;altitude;pressure_sealevel;temperature;humidity
10948;BME280;5526;42.070;24.752;2023-01-28T00:00:37;98201.81;;;5.19;89.06
10948;BME280;5526;42.070;24.752;2023-01-28T00:03:04;98198.97;;;5.20;89.26
10948;BME280;5526;42.070;24.752;2023-01-28T00:05:31;98207.59;;;5.21;89.17
10948;BME280;5526;42.070;24.752;2023-01-28T00:07:58;98200.38;;;5.28;88.95
10948;BME280;5526;42.070;24.752;2023-01-28T00:10:25;98197.56;;;5.13;88.45
10948;BME280;5526;42.070;24.752;2023-01-28T00:12:54;98205.47;;;5.18;88.97
10948;BME280;5526;42.070;24.752;2023-01-28T00:15:21;98194.63;;;5.09;88.74
10948;BME280;5526;42.070;24.752;2023-01-28T00:17:50;98219.28;;;5.18;89.36
10948;BME280;5526;42.070;24.752;2023-01-28T00:20:17;98214.97;;;5.07;88.77
10948;BME280;5526;42.070;24.752;2023-01-28T00:22:46;98206.75;;;5.15;88.88
10948;BME280;5526;42.070;24.752;2023-01-28T00:25:14;98217.47;;;5.19;88.89
10948;BME280;5526;42.070;24.752;2023-01-28T00:27:41;98207.03;;;5.19;88.94
10948;BME280;5526;42.070;24.752;2023-01-28T00:30:11;98224.25;;;5.20;88.84
10948;BME280;5526;42.070;24.752;2023-01-28T00:32:38;98217.72;;;5.17;88.99
10948;BME280;5526;42.070;24.752;2023-01-28T00:35:06;98218.50;;;5.18;88.93
10948;BME280;5526;42.070;24.752;2023-01-28T00:37:33;98215.34;;;5.16;89.25
10948;BME280;5526;42.070;24.752;2023-01-28T00:40:01;98236.44;;;5.14;89.29
10948;BME280;5526;42.070;24.752;2023-01-28T00:42:28;98225.13;;;5.09;88.81
10948;BME280;5526;42.070;24.752;2023-01-28T00:44:55;98226.88;;;5.20;89.39
10948;BME280;5526;42.070;24.752;2023-01-28T00:47:24;98244.34;;;5.19;88.69
10948;BME280;5526;42.070;24.752;2023-01-28T00:49:51;98245.94;;;5.20;88.37
10948;BME280;5526;42.070;24.752;2023-01-28T00:52:18;98258.56;;;5.12;87.61
10948;BME280;5526;42.070;24.752;2023-01-28T00:54:46;98261.41;;;5.10;88.32
10948;BME280;5526;42.070;24.752;2023-01-28T00:57:13;98244.97;;;5.10;88.41
10948;BME280;5526;42.070;24.752;2023-01-28T00:59:40;98254.38;;;5.11;88.07
10948;BME280;5526;42.070;24.752;2023-01-28T01:02:07;98270.91;;;5.16;88.74
10948;BME280;5526;42.070;24.752;2023-01-28T01:04:39;98271.53;;;5.23;88.69
10948;BME280;5526;42.070;24.752;2023-01-28T01:07:21;98266.84;;;5.09;89.22
10948;BME280;5526;42.070;24.752;2023-01-28T01:09:57;98267.81;;;5.19;89.15
10948;BME280;5526;42.070;24.752;2023-01-28T01:12:25;98261.81;;;5.19;89.61
10948;BME280;5526;42.070;24.752;2023-01-28T01:14:52;98263.31;;;5.15;89.94
10948;BME280;5526;42.070;24.752;2023-01-28T01:17:20;98263.31;;;5.15;89.22
10948;BME280;5526;42.070;24.752;2023-01-28T01:19:48;98260.06;;;5.08;89.41
10948;BME280;5526;42.070;24.752;2023-01-28T01:22:16;98267.34;;;5.06;89.34
10948;BME280;5526;42.070;24.752;2023-01-28T01:24:43;98264.25;;;5.09;89.88
10948;BME280;5526;42.070;24.752;2023-01-28T01:27:10;98262.66;;;5.08;88.51
10948;BME280;5526;42.070;24.752;2023-01-28T01:29:37;98268.28;;;5.16;88.77
10948;BME280;5526;42.070;24.752;2023-01-28T01:32:04;98245.91;;;5.04;88.71
10948;BME280;5526;42.070;24.752;2023-01-28T01:34:32;98271.81;;;5.10;88.50
10948;BME280;5526;42.070;24.752;2023-01-28T01:37:00;98268.69;;;5.08;88.74
10948;BME280;5526;42.070;24.752;2023-01-28T01:39:30;98266.06;;;5.08;88.57
10948;BME280;5526;42.070;24.752;2023-01-28T01:41:58;98274.13;;;5.07;88.97
10948;BME280;5526;42.070;24.752;2023-01-28T01:44:55;98284.63;;;4.95;88.26
10948;BME280;5526;42.070;24.752;2023-01-28T01:47:25;98283.91;;;5.00;88.52
10948;BME280;5526;42.070;24.752;2023-01-28T01:49:55;98301.28;;;4.94;88.76
10948;BME280;5526;42.070;24.752;2023-01-28T01:52:31;98288.66;;;5.03;88.40
10948;BME280;5526;42.070;24.752;2023-01-28T01:55:01;98290.56;;;5.07;87.55
10948;BME280;5526;42.070;24.752;2023-01-28T01:57:32;98286.47;;;5.11;86.51
10948;BME280;5526;42.070;24.752;2023-01-28T02:00:02;98292.22;;;5.13;87.02
10948;BME280;5526;42.070;24.752;2023-01-28T02:02:36;98286.13;;;5.08;86.66
10948;BME280;5526;42.070;24.752;2023-01-28T02:05:05;98291.56;;;5.06;86.71
10948;BME280;5526;42.070;24.752;2023-01-28T02:07:35;98293.81;;;5.14;86.14
10948;BME280;5526;42.070;24.752;2023-01-28T02:10:03;98293.94;;;5.08;86.03
10948;BME280;5526;42.070;24.752;2023-01-28T02:12:34;98292.88;;;5.20;87.33
10948;BME280;5526;42.070;24.752;2023-01-28T02:15:05;98302.84;;;5.23;87.61
10948;BME280;5526;42.070;24.752;2023-01-28T02:17:34;98297.28;;;5.20;86.65
10948;BME280;5526;42.070;24.752;2023-01-28T02:20:04;98307.56;;;5.26;87.45
10948;BME280;5526;42.070;24.752;2023-01-28T02:22:57;98310.56;;;5.18;86.92
10948;BME280;5526;42.070;24.752;2023-01-28T02:28:31;98306.59;;;5.16;87.51
10948;BME280;5526;42.070;24.752;2023-01-28T02:31:04;98310.63;;;5.07;87.25
10948;BME280;5526;42.070;24.752;2023-01-28T02:33:38;98319.72;;;5.04;86.97
10948;BME280;5526;42.070;24.752;2023-01-28T02:36:14;98286.38;;;5.06;86.79
10948;BME280;5526;42.070;24.752;2023-01-28T02:38:46;98321.94;;;5.12;86.90
10948;BME280;5526;42.070;24.752;2023-01-28T02:41:19;98324.22;;;5.09;86.63
10948;BME280;5526;42.070;24.752;2023-01-28T02:43:49;98327.97;;;5.13;86.80
10948;BME280;5526;42.070;24.752;2023-01-28T02:46:20;98311.50;;;5.12;86.59
10948;BME280;5526;42.070;24.752;2023-01-28T02:49:09;98324.56;;;5.12;86.77
10948;BME280;5526;42.070;24.752;2023-01-28T02:51:47;98342.47;;;5.09;85.97
10948;BME280;5526;42.070;24.752;2023-01-28T02:54:21;98323.09;;;5.05;86.54
10948;BME280;5526;42.070;24.752;2023-01-28T02:56:54;98324.56;;;5.12;86.67
10948;BME280;5526;42.070;24.752;2023-01-28T02:59:28;98331.34;;;5.13;86.52
10948;BME280;5526;42.070;24.752;2023-01-28T03:02:09;98336.44;;;4.92;85.96
10948;BME280;5526;42.070;24.752;2023-01-28T03:04:44;98333.94;;;5.13;86.92
10948;BME280;5526;42.070;24.752;2023-01-28T03:07:16;98339.47;;;5.00;86.35
10948;BME280;5526;42.070;24.752;2023-01-28T03:09:45;98339.78;;;5.04;86.29
10948;BME280;5526;42.070;24.752;2023-01-28T03:12:18;98348.47;;;5.09;86.53
10948;BME280;5526;42.070;24.752;2023-01-28T03:15:08;98332.84;;;5.09;85.86
10948;BME280;5526;42.070;24.752;2023-01-28T03:17:57;98336.72;;;5.07;85.72
10948;BME280;5526;42.070;24.752;2023-01-28T03:20:47;98354.06;;;5.01;85.86
10948;BME280;5526;42.070;24.752;2023-01-28T03:23:37;98342.53;;;4.97;86.41
10948;BME280;5526;42.070;24.752;2023-01-28T03:26:23;98349.19;;;5.05;86.24
10948;BME280;5526;42.070;24.752;2023-01-28T03:29:11;98337.25;;;5.09;86.17
10948;BME280;5526;42.070;24.752;2023-01-28T03:31:59;98345.59;;;4.94;85.93
10948;BME280;5526;42.070;24.752;2023-01-28T03:34:44;98349.88;;;5.00;86.53
10948;BME280;5526;42.070;24.752;2023-01-28T03:37:30;98349.81;;;4.95;87.06
10948;BME280;5526;42.070;24.752;2023-01-28T03:40:01;98343.22;;;4.93;86.71
10948;BME280;5526;42.070;24.752;2023-01-28T03:42:30;98357.06;;;4.93;86.70
10948;BME280;5526;42.070;24.752;2023-01-28T03:44:58;98349.69;;;4.90;87.32
10948;BME280;5526;42.070;24.752;2023-01-28T03:47:31;98349.00;;;4.95;86.88
10948;BME280;5526;42.070;24.752;2023-01-28T03:49:58;98360.72;;;4.81;86.59
10948;BME280;5526;42.070;24.752;2023-01-28T03:52:28;98360.72;;;4.81;87.06
10948;BME280;5526;42.070;24.752;2023-01-28T03:54:56;98351.75;;;4.88;86.60
10948;BME280;5526;42.070;24.752;2023-01-28T03:57:25;98365.69;;;4.82;86.92
10948;BME280;5526;42.070;24.752;2023-01-28T03:59:55;98360.31;;;4.72;86.82
10948;BME280;5526;42.070;24.752;2023-01-28T04:02:23;98352.50;;;4.72;87.07
10948;BME280;5526;42.070;24.752;2023-01-28T04:04:53;98358.03;;;4.76;86.98
10948;BME280;5526;42.070;24.752;2023-01-28T04:07:20;98362.31;;;4.82;86.82
10948;BME280;5526;42.070;24.752;2023-01-28T04:09:47;98358.53;;;4.89;86.55
10948;BME280;5526;42.070;24.752;2023-01-28T04:12:15;98360.69;;;4.92;86.79
10948;BME280;5526;42.070;24.752;2023-01-28T04:14:43;98366.06;;;5.02;86.20
10948;BME280;5526;42.070;24.752;2023-01-28T04:17:10;98369.44;;;4.86;86.25
10948;BME280;5526;42.070;24.752;2023-01-28T04:19:37;98370.38;;;4.80;85.93
10948;BME280;5526;42.070;24.752;2023-01-28T04:22:09;98361.16;;;4.89;86.50
10948;BME280;5526;42.070;24.752;2023-01-28T04:24:37;98364.22;;;4.86;86.04
10948;BME280;5526;42.070;24.752;2023-01-28T04:27:04;98377.97;;;4.82;86.27
10948;BME280;5526;42.070;24.752;2023-01-28T04:29:31;98364.22;;;4.86;86.26
10948;BME280;5526;42.070;24.752;2023-01-28T04:31:58;98373.19;;;4.79;86.62
10948;BME280;5526;42.070;24.752;2023-01-28T04:34:26;98379.84;;;4.86;86.92
10948;BME280;5526;42.070;24.752;2023-01-28T04:36:53;98371.25;;;4.86;86.49
10948;BME280;5526;42.070;24.752;2023-01-28T04:39:22;98387.84;;;4.68;87.13
10948;BME280;5526;42.070;24.752;2023-01-28T04:41:49;98369.63;;;4.68;86.83
10948;BME280;5526;42.070;24.752;2023-01-28T04:44:16;98375.91;;;4.84;86.78
10948;BME280;5526;42.070;24.752;2023-01-28T04:46:43;98377.84;;;4.77;86.24
10948;BME280;5526;42.070;24.752;2023-01-28T04:49:10;98376.69;;;4.84;86.15
10948;BME280;5526;42.070;24.752;2023-01-28T04:51:37;98403.09;;;4.88;85.20
10948;BME280;5526;42.070;24.752;2023-01-28T04:54:05;98405.81;;;4.81;86.05
10948;BME280;5526;42.070;24.752;2023-01-28T04:56:34;98388.38;;;4.82;86.09
10948;BME280;5526;42.070;24.752;2023-01-28T04:59:01;98398.91;;;4.75;85.84
10948;BME280;5526;42.070;24.752;2023-01-28T05:01:28;98391.59;;;4.72;86.49
10948;BME280;5526;42.070;24.752;2023-01-28T05:03:55;98402.56;;;4.74;86.36
10948;BME280;5526;42.070;24.752;2023-01-28T05:06:23;98411.41;;;4.73;86.67
10948;BME280;5526;42.070;24.752;2023-01-28T05:08:50;98414.25;;;4.60;87.33
10948;BME280;5526;42.070;24.752;2023-01-28T05:11:17;98415.16;;;4.54;86.85
10948;BME280;5526;42.070;24.752;2023-01-28T05:13:46;98417.28;;;4.68;87.33
10948;BME280;5526;42.070;24.752;2023-01-28T05:16:13;98418.19;;;4.74;86.72
10948;BME280;5526;42.070;24.752;2023-01-28T05:18:40;98421.81;;;4.73;86.77
10948;BME280;5526;42.070;24.752;2023-01-28T05:21:07;98418.31;;;4.68;86.41
10948;BME280;5526;42.070;24.752;2023-01-28T05:23:34;98428.97;;;4.66;86.55
10948;BME280;5526;42.070;24.752;2023-01-28T05:26:02;98433.28;;;4.72;86.81
10948;BME280;5526;42.070;24.752;2023-01-28T05:28:29;98422.94;;;4.77;86.00
10948;BME280;5526;42.070;24.752;2023-01-28T05:31:01;98435.53;;;4.80;86.21
10948;BME280;5526;42.070;24.752;2023-01-28T05:33:29;98428.53;;;4.69;86.59
10948;BME280;5526;42.070;24.752;2023-01-28T05:35:56;98435.88;;;4.72;87.09
10948;BME280;5526;42.070;24.752;2023-01-28T05:38:24;98443.81;;;4.65;86.44
10948;BME280;5526;42.070;24.752;2023-01-28T05:40:51;98436.66;;;4.72;86.18
10948;BME280;5526;42.070;24.752;2023-01-28T05:43:18;98447.88;;;4.73;86.46
10948;BME280;5526;42.070;24.752;2023-01-28T05:45:45;98450.81;;;4.77;86.28
10948;BME280;5526;42.070;24.752;2023-01-28T05:48:14;98451.72;;;4.82;86.43
10948;BME280;5526;42.070;24.752;2023-01-28T05:50:42;98456.25;;;4.75;86.54
10948;BME280;5526;42.070;24.752;2023-01-28T05:53:09;98455.44;;;4.86;85.44
10948;BME280;5526;42.070;24.752;2023-01-28T05:55:36;98452.88;;;4.75;85.45
10948;BME280;5526;42.070;24.752;2023-01-28T05:58:03;98455.91;;;4.83;86.18
10948;BME280;5526;42.070;24.752;2023-01-28T06:00:30;98462.72;;;4.84;85.27
10948;BME280;5526;42.070;24.752;2023-01-28T06:02:58;98464.53;;;4.84;86.31
10948;BME280;5526;42.070;24.752;2023-01-28T06:05:26;98469.63;;;4.79;85.75
10948;BME280;5526;42.070;24.752;2023-01-28T06:07:53;98461.47;;;4.75;86.09
10948;BME280;5526;42.070;24.752;2023-01-28T06:10:21;98484.69;;;4.77;85.33
10948;BME280;5526;42.070;24.752;2023-01-28T06:12:48;98490.38;;;4.85;85.91
10948;BME280;5526;42.070;24.752;2023-01-28T06:15:15;98495.59;;;4.74;85.54
10948;BME280;5526;42.070;24.752;2023-01-28T06:17:42;98503.53;;;4.79;85.70
10948;BME280;5526;42.070;24.752;2023-01-28T06:20:10;98500.56;;;4.87;85.74
10948;BME280;5526;42.070;24.752;2023-01-28T06:22:39;98504.66;;;4.83;85.24
10948;BME280;5526;42.070;24.752;2023-01-28T06:25:07;98508.50;;;4.80;85.66
10948;BME280;5526;42.070;24.752;2023-01-28T06:27:34;98502.59;;;4.85;85.85
10948;BME280;5526;42.070;24.752;2023-01-28T06:30:02;98519.59;;;4.99;85.51
10948;BME280;5526;42.070;24.752;2023-01-28T06:32:29;98512.00;;;4.97;85.07
10948;BME280;5526;42.070;24.752;2023-01-28T06:34:57;98525.47;;;4.94;85.22
10948;BME280;5526;42.070;24.752;2023-01-28T06:37:24;98521.28;;;4.93;85.80
10948;BME280;5526;42.070;24.752;2023-01-28T06:39:52;98523.00;;;4.99;85.21
10948;BME280;5526;42.070;24.752;2023-01-28T06:42:20;98519.69;;;5.04;86.03
10948;BME280;5526;42.070;24.752;2023-01-28T06:44:47;98529.34;;;4.92;85.50
10948;BME280;5526;42.070;24.752;2023-01-28T06:47:14;98530.59;;;4.89;85.44
10948;BME280;5526;42.070;24.752;2023-01-28T06:49:41;98537.97;;;4.92;86.22
10948;BME280;5526;42.070;24.752;2023-01-28T06:52:09;98533.31;;;4.94;86.21
10948;BME280;5526;42.070;24.752;2023-01-28T06:54:36;98525.94;;;5.03;86.23
10948;BME280;5526;42.070;24.752;2023-01-28T06:57:04;98537.81;;;5.10;86.05
10948;BME280;5526;42.070;24.752;2023-01-28T06:59:32;98536.03;;;4.99;85.48
10948;BME280;5526;42.070;24.752;2023-01-28T07:01:59;98537.16;;;5.03;85.67
10948;BME280;5526;42.070;24.752;2023-01-28T07:04:26;98538.75;;;5.04;85.53
10948;BME280;5526;42.070;24.752;2023-01-28T07:06:54;98541.31;;;5.16;85.44
10948;BME280;5526;42.070;24.752;2023-01-28T07:09:21;98540.41;;;5.10;85.10
10948;BME280;5526;42.070;24.752;2023-01-28T07:11:48;98548.81;;;5.12;85.30
10948;BME280;5526;42.070;24.752;2023-01-28T07:14:17;98556.66;;;5.12;85.21
10948;BME280;5526;42.070;24.752;2023-01-28T07:16:44;98568.47;;;5.03;85.97
10948;BME280;5526;42.070;24.752;2023-01-28T07:19:11;98550.63;;;5.12;85.94
10948;BME280;5526;42.070;24.752;2023-01-28T07:21:38;98561.28;;;5.22;85.47
10948;BME280;5526;42.070;24.752;2023-01-28T07:24:06;98559.72;;;5.21;85.63
10948;BME280;5526;42.070;24.752;2023-01-28T07:26:33;98573.41;;;5.28;85.42
10948;BME280;5526;42.070;24.752;2023-01-28T07:29:01;98561.97;;;5.17;85.21
10948;BME280;5526;42.070;24.752;2023-01-28T07:31:29;98571.22;;;5.36;85.26
10948;BME280;5526;42.070;24.752;2023-01-28T07:33:56;98576.91;;;5.33;84.38
10948;BME280;5526;42.070;24.752;2023-01-28T07:36:24;98577.47;;;5.35;84.81
10948;BME280;5526;42.070;24.752;2023-01-28T07:38:51;98580.84;;;5.47;85.25
10948;BME280;5526;42.070;24.752;2023-01-28T07:41:18;98581.75;;;5.53;85.30
10948;BME280;5526;42.070;24.752;2023-01-28T07:43:45;98586.16;;;5.52;85.25
10948;BME280;5526;42.070;24.752;2023-01-28T07:46:12;98587.13;;;5.35;84.36
10948;BME280;5526;42.070;24.752;2023-01-28T07:48:41;98582.94;;;5.34;84.61
10948;BME280;5526;42.070;24.752;2023-01-28T07:51:08;98576.44;;;5.36;84.04
10948;BME280;5526;42.070;24.752;2023-01-28T07:53:35;98587.78;;;5.42;84.08
10948;BME280;5526;42.070;24.752;2023-01-28T07:56:04;98566.09;;;5.41;84.11
10948;BME280;5526;42.070;24.752;2023-01-28T07:58:31;98582.91;;;5.73;83.88
10948;BME280;5526;42.070;24.752;2023-01-28T08:01:00;98590.13;;;5.66;85.10
10948;BME280;5526;42.070;24.752;2023-01-28T08:03:27;98584.84;;;5.38;84.58
10948;BME280;5526;42.070;24.752;2023-01-28T08:05:56;98590.63;;;5.40;84.81
10948;BME280;5526;42.070;24.752;2023-01-28T08:08:24;98608.22;;;5.45;83.99
10948;BME280;5526;42.070;24.752;2023-01-28T08:10:52;98607.22;;;5.34;84.36
10948;BME280;5526;42.070;24.752;2023-01-28T08:13:19;98621.69;;;5.30;85.06
10948;BME280;5526;42.070;24.752;2023-01-28T08:15:47;98626.25;;;5.35;85.11
10948;BME280;5526;42.070;24.752;2023-01-28T08:18:15;98620.44;;;5.44;85.54
10948;BME280;5526;42.070;24.752;2023-01-28T08:20:43;98629.53;;;5.42;85.32
10948;BME280;5526;42.070;24.752;2023-01-28T08:23:15;98635.56;;;5.42;86.51
10948;BME280;5526;42.070;24.752;2023-01-28T08:25:42;98629.44;;;5.37;85.58
10948;BME280;5526;42.070;24.752;2023-01-28T08:28:10;98644.97;;;5.32;85.04
10948;BME280;5526;42.070;24.752;2023-01-28T08:30:38;98610.38;;;5.13;85.19
10948;BME280;5526;42.070;24.752;2023-01-28T08:33:07;98644.97;;;5.43;84.14
10948;BME280;5526;42.070;24.752;2023-01-28T08:35:35;98638.94;;;5.54;84.73
10948;BME280;5526;42.070;24.752;2023-01-28T08:38:04;98655.00;;;5.86;84.88
10948;BME280;5526;42.070;24.752;2023-01-28T08:40:34;98645.53;;;6.08;84.42
10948;BME280;5526;42.070;24.752;2023-01-28T08:43:01;98639.63;;;6.29;83.67
10948;BME280;5526;42.070;24.752;2023-01-28T08:45:29;98655.78;;;6.54;82.36
10948;BME280;5526;42.070;24.752;2023-01-28T08:47:58;98661.13;;;6.47;81.74
10948;BME280;5526;42.070;24.752;2023-01-28T08:50:27;98657.50;;;6.48;82.10
10948;BME280;5526;42.070;24.752;2023-01-28T08:52:59;98651.66;;;6.74;81.72
10948;BME280;5526;42.070;24.752;2023-01-28T08:55:27;98655.16;;;6.63;82.38
10948;BME280;5526;42.070;24.752;2023-01-28T08:57:56;98666.25;;;6.87;80.86
10948;BME280;5526;42.070;24.752;2023-01-28T09:00:23;98670.38;;;6.99;80.59
10948;BME280;5526;42.070;24.752;2023-01-28T09:02:51;98676.09;;;6.96;80.61
10948;BME280;5526;42.070;24.752;2023-01-28T09:05:19;98675.97;;;6.30;80.97
10948;BME280;5526;42.070;24.752;2023-01-28T09:07:47;98677.16;;;6.23;80.20
10948;BME280;5526;42.070;24.752;2023-01-28T09:10:15;98672.06;;;6.44;79.59
10948;BME280;5526;42.070;24.752;2023-01-28T09:12:42;98673.00;;;6.38;78.96
10948;BME280;5526;42.070;24.752;2023-01-28T09:15:11;98676.25;;;6.45;79.33
10948;BME280;5526;42.070;24.752;2023-01-28T09:17:39;98671.94;;;6.84;78.97
10948;BME280;5526;42.070;24.752;2023-01-28T09:20:07;98669.97;;;6.58;79.04
10948;BME280;5526;42.070;24.752;2023-01-28T09:22:34;98674.84;;;6.54;79.25
10948;BME280;5526;42.070;24.752;2023-01-28T09:25:02;98673.06;;;6.27;79.33
10948;BME280;5526;42.070;24.752;2023-01-28T09:27:29;98661.06;;;6.14;80.19
10948;BME280;5526;42.070;24.752;2023-01-28T09:29:57;98677.56;;;6.31;79.31
10948;BME280;5526;42.070;24.752;2023-01-28T09:32:26;98676.94;;;6.24;79.31
10948;BME280;5526;42.070;24.752;2023-01-28T09:34:53;98665.38;;;6.37;80.28
10948;BME280;5526;42.070;24.752;2023-01-28T09:37:20;98663.63;;;6.54;79.98
10948;BME280;5526;42.070;24.752;2023-01-28T09:39:48;98681.03;;;6.65;79.37
10948;BME280;5526;42.070;24.752;2023-01-28T09:42:26;98681.06;;;6.37;79.06
10948;BME280;5526;42.070;24.752;2023-01-28T09:45:02;98677.00;;;6.29;79.33
10948;BME280;5526;42.070;24.752;2023-01-28T09:47:36;98676.53;;;6.60;79.66
10948;BME280;5526;42.070;24.752;2023-01-28T09:50:08;98673.47;;;6.63;78.89
10948;BME280;5526;42.070;24.752;2023-01-28T09:52:40;98659.75;;;6.56;79.03
10948;BME280;5526;42.070;24.752;2023-01-28T09:55:17;98682.84;;;6.48;79.35
10948;BME280;5526;42.070;24.752;2023-01-28T09:57:49;98667.06;;;6.43;80.09
10948;BME280;5526;42.070;24.752;2023-01-28T10:00:20;98679.25;;;6.37;81.01
10948;BME280;5526;42.070;24.752;2023-01-28T10:03:17;98678.13;;;6.61;79.80
10948;BME280;5526;42.070;24.752;2023-01-28T10:05:54;98675.97;;;6.58;81.22
10948;BME280;5526;42.070;24.752;2023-01-28T10:08:37;98676.31;;;6.62;80.50
10948;BME280;5526;42.070;24.752;2023-01-28T10:11:16;98687.75;;;6.61;79.68
10948;BME280;5526;42.070;24.752;2023-01-28T10:13:52;98678.34;;;6.60;80.71
10948;BME280;5526;42.070;24.752;2023-01-28T10:16:28;98689.53;;;6.72;79.44
10948;BME280;5526;42.070;24.752;2023-01-28T10:19:02;98682.41;;;6.84;80.39
10948;BME280;5526;42.070;24.752;2023-01-28T10:21:36;98683.06;;;7.07;78.47
10948;BME280;5526;42.070;24.752;2023-01-28T10:24:10;98681.28;;;7.29;77.65
10948;BME280;5526;42.070;24.752;2023-01-28T10:26:43;98667.16;;;7.47;77.53
10948;BME280;5526;42.070;24.752;2023-01-28T10:29:13;98675.97;;;7.41;75.59
10948;BME280;5526;42.070;24.752;2023-01-28T10:31:49;98668.31;;;7.34;77.63
10948;BME280;5526;42.070;24.752;2023-01-28T10:34:20;98677.59;;;6.92;77.51
10948;BME280;5526;42.070;24.752;2023-01-28T10:36:48;98681.88;;;7.31;78.86
10948;BME280;5526;42.070;24.752;2023-01-28T10:39:17;98677.38;;;7.48;77.17
10948;BME280;5526;42.070;24.752;2023-01-28T10:41:45;98685.72;;;7.45;76.56
10948;BME280;5526;42.070;24.752;2023-01-28T10:44:15;98683.72;;;7.52;74.41
10948;BME280;5526;42.070;24.752;2023-01-28T10:46:45;98679.75;;;6.95;77.25
10948;BME280;5526;42.070;24.752;2023-01-28T10:49:17;98684.56;;;7.03;75.80
10948;BME280;5526;42.070;24.752;2023-01-28T10:51:46;98678.88;;;6.90;76.71
10948;BME280;5526;42.070;24.752;2023-01-28T10:54:18;98686.94;;;7.21;76.43
10948;BME280;5526;42.070;24.752;2023-01-28T10:56:46;98680.28;;;7.14;76.97
10948;BME280;5526;42.070;24.752;2023-01-28T10:59:19;98677.66;;;6.97;78.03
10948;BME280;5526;42.070;24.752;2023-01-28T11:01:49;98674.88;;;7.20;78.63
10948;BME280;5526;42.070;24.752;2023-01-28T11:04:21;98673.72;;;7.11;79.40
10948;BME280;5526;42.070;24.752;2023-01-28T11:06:55;98674.53;;;7.50;79.74
10948;BME280;5526;42.070;24.752;2023-01-28T11:09:24;98679.94;;;7.27;78.46
10948;BME280;5526;42.070;24.752;2023-01-28T11:11:52;98685.13;;;7.22;79.72
10948;BME280;5526;42.070;24.752;2023-01-28T11:14:23;98690.44;;;7.10;80.44
10948;BME280;5526;42.070;24.752;2023-01-28T11:16:53;98673.22;;;6.81;80.17
10948;BME280;5526;42.070;24.752;2023-01-28T11:19:24;98671.63;;;6.64;79.96
10948;BME280;5526;42.070;24.752;2023-01-28T11:21:56;98672.56;;;6.58;81.43
10948;BME280;5526;42.070;24.752;2023-01-28T11:24:27;98646.44;;;6.58;80.90
10948;BME280;5526;42.070;24.752;2023-01-28T11:26:57;98678.94;;;6.95;80.14
10948;BME280;5526;42.070;24.752;2023-01-28T11:29:29;98675.13;;;6.86;79.84
10948;BME280;5526;42.070;24.752;2023-01-28T11:31:58;98674.97;;;6.92;80.39
10948;BME280;5526;42.070;24.752;2023-01-28T11:34:27;98678.78;;;6.85;80.91
10948;BME280;5526;42.070;24.752;2023-01-28T11:37:03;98684.31;;;7.21;80.47
10948;BME280;5526;42.070;24.752;2023-01-28T11:39:31;98671.97;;;7.00;81.22
10948;BME280;5526;42.070;24.752;2023-01-28T11:42:12;98677.13;;;6.95;82.19
10948;BME280;5526;42.070;24.752;2023-01-28T11:44:41;98678.22;;;6.99;81.20
10948;BME280;5526;42.070;24.752;2023-01-28T11:47:39;98668.44;;;7.44;79.46
10948;BME280;5526;42.070;24.752;2023-01-28T11:50:22;98687.97;;;7.20;80.15
10948;BME280;5526;42.070;24.752;2023-01-28T11:52:59;98678.94;;;7.11;79.57
10948;BME280;5526;42.070;24.752;2023-01-28T11:55:40;98679.25;;;7.15;80.14
10948;BME280;5526;42.070;24.752;2023-01-28T11:58:19;98692.91;;;7.17;80.82
10948;BME280;5526;42.070;24.752;2023-01-28T12:00:54;98674.50;;;6.95;81.32
10948;BME280;5526;42.070;24.752;2023-01-28T12:03:50;98675.06;;;6.36;83.16
10948;BME280;5526;42.070;24.752;2023-01-28T12:06:27;98683.06;;;6.46;84.29
10948;BME280;5526;42.070;24.752;2023-01-28T12:09:10;98673.34;;;6.42;84.27
10948;BME280;5526;42.070;24.752;2023-01-28T12:11:49;98690.75;;;6.36;84.67
10948;BME280;5526;42.070;24.752;2023-01-28T12:15:07;98692.94;;;6.16;85.59
10948;BME280;5526;42.070;24.752;2023-01-28T12:17:54;98663.53;;;6.21;84.30
10948;BME280;5526;42.070;24.752;2023-01-28T12:20:28;98702.41;;;6.45;84.75
10948;BME280;5526;42.070;24.752;2023-01-28T12:23:28;98700.22;;;6.54;83.80
10948;BME280;5526;42.070;24.752;2023-01-28T12:26:07;98703.44;;;6.61;84.23
10948;BME280;5526;42.070;24.752;2023-01-28T12:29:00;98706.63;;;6.63;84.26
10948;BME280;5526;42.070;24.752;2023-01-28T12:34:54;98712.88;;;6.34;86.91
10948;BME280;5526;42.070;24.752;2023-01-28T12:37:34;98712.28;;;6.43;86.69
10948;BME280;5526;42.070;24.752;2023-01-28T12:40:17;98692.44;;;6.59;85.06
10948;BME280;5526;42.070;24.752;2023-01-28T12:42:52;98713.78;;;6.39;84.40
10948;BME280;5526;42.070;24.752;2023-01-28T12:45:25;98721.91;;;6.26;85.27
10948;BME280;5526;42.070;24.752;2023-01-28T12:47:57;98721.97;;;6.43;85.73
10948;BME280;5526;42.070;24.752;2023-01-28T12:50:30;98715.03;;;6.37;85.75
10948;BME280;5526;42.070;24.752;2023-01-28T12:53:02;98717.78;;;6.30;85.54
10948;BME280;5526;42.070;24.752;2023-01-28T12:55:39;98729.19;;;6.13;86.10
10948;BME280;5526;42.070;24.752;2023-01-28T12:58:15;98730.47;;;6.10;86.81
10948;BME280;5526;42.070;24.752;2023-01-28T13:00:48;98730.59;;;6.04;87.72
10948;BME280;5526;42.070;24.752;2023-01-28T13:03:20;98719.44;;;6.08;87.30
10948;BME280;5526;42.070;24.752;2023-01-28T13:05:54;98730.81;;;6.02;87.84
10948;BME280;5526;42.070;24.752;2023-01-28T13:08:26;98729.00;;;6.03;87.34
10948;BME280;5526;42.070;24.752;2023-01-28T13:10:55;98716.88;;;5.97;88.40
10948;BME280;5526;42.070;24.752;2023-01-28T13:13:29;98715.84;;;6.37;87.76
10948;BME280;5526;42.070;24.752;2023-01-28T13:15:58;98722.94;;;6.14;87.96
10948;BME280;5526;42.070;24.752;2023-01-28T13:18:33;98718.06;;;6.17;88.63
10948;BME280;5526;42.070;24.752;2023-01-28T13:21:02;98737.84;;;6.02;87.91
10948;BME280;5526;42.070;24.752;2023-01-28T13:23:38;98736.94;;;5.96;88.19
10948;BME280;5526;42.070;24.752;2023-01-28T13:26:27;98723.75;;;6.14;88.22
10948;BME280;5526;42.070;24.752;2023-01-28T13:29:15;98745.00;;;6.06;86.88
10948;BME280;5526;42.070;24.752;2023-01-28T13:31:45;98743.53;;;6.10;86.90
10948;BME280;5526;42.070;24.752;2023-01-28T13:34:31;98735.41;;;6.23;86.52
10948;BME280;5526;42.070;24.752;2023-01-28T13:37:02;98749.28;;;6.24;86.97